createdAt,value
2019-01-09T00:00:43.856Z,1.71
2019-01-09T00:01:47.959Z,1.71
2019-01-09T00:02:52.222Z,1.71
2019-01-09T00:03:56.297Z,1.70
2019-01-09T00:05:00.554Z,1.70
2019-01-09T00:06:04.607Z,1.69
2019-01-09T00:07:08.838Z,1.67
2019-01-09T00:08:13.012Z,1.66
2019-01-09T00:09:17.214Z,1.67
2019-01-09T00:10:21.332Z,1.65
2019-01-09T00:11:25.482Z,1.65
2019-01-09T00:12:29.594Z,1.62
2019-01-09T00:13:33.783Z,1.63
2019-01-09T00:14:38.015Z,1.63
2019-01-09T00:15:42.184Z,1.65
2019-01-09T00:16:46.336Z,1.64
2019-01-09T00:17:50.525Z,1.62
2019-01-09T00:18:54.622Z,1.62
2019-01-09T00:19:58.896Z,1.62
2019-01-09T00:21:03.091Z,1.59
2019-01-09T00:22:07.281Z,1.62
2019-01-09T00:23:11.383Z,1.59
2019-01-09T00:24:15.612Z,1.60
2019-01-09T00:25:19.764Z,1.58
2019-01-09T00:26:23.937Z,1.59
2019-01-09T00:27:27.932Z,1.57
2019-01-09T00:28:32.113Z,1.56
2019-01-09T00:29:36.238Z,1.57
2019-01-09T00:30:40.498Z,1.56
2019-01-09T00:31:44.557Z,1.53
2019-01-09T00:32:48.809Z,1.51
2019-01-09T00:33:52.937Z,1.49
2019-01-09T00:34:57.043Z,1.46
2019-01-09T00:36:01.233Z,1.44
2019-01-09T00:37:05.421Z,1.40
2019-01-09T00:38:09.520Z,1.39
2019-01-09T00:39:13.639Z,1.40
2019-01-09T00:40:17.850Z,1.39
2019-01-09T00:41:22.005Z,1.38
2019-01-09T00:42:26.068Z,1.35
2019-01-09T00:43:30.197Z,1.34
2019-01-09T00:44:34.410Z,1.31
2019-01-09T00:45:38.470Z,1.29
2019-01-09T00:46:42.575Z,1.30
2019-01-09T00:47:46.808Z,1.32
2019-01-09T00:48:51.010Z,1.34
2019-01-09T00:49:55.178Z,1.35
2019-01-09T00:50:59.331Z,1.37
2019-01-09T00:52:03.486Z,1.39
2019-01-09T00:53:07.679Z,1.41
2019-01-09T00:54:11.785Z,1.42
2019-01-09T00:55:15.939Z,1.44
2019-01-09T00:56:20.048Z,1.46
2019-01-09T00:57:24.059Z,1.46
2019-01-09T00:58:28.340Z,1.47
2019-01-09T00:59:32.524Z,1.48
2019-01-09T01:00:36.644Z,1.48
2019-01-09T01:01:40.761Z,1.50
2019-01-09T01:02:44.977Z,1.53
2019-01-09T01:03:49.045Z,1.54
2019-01-09T01:04:53.238Z,1.52
2019-01-09T01:05:57.424Z,1.52
2019-01-09T01:07:01.393Z,1.54
2019-01-09T01:08:05.691Z,1.53
2019-01-09T01:09:09.865Z,1.51
2019-01-09T01:10:14.080Z,1.51
2019-01-09T01:11:18.221Z,1.50
2019-01-09T01:12:22.278Z,1.50
2019-01-09T01:13:26.535Z,1.49
2019-01-09T01:14:30.673Z,1.49
2019-01-09T01:15:34.799Z,1.47
2019-01-09T01:16:39.008Z,1.47
2019-01-09T01:17:46.129Z,1.48
2019-01-09T01:18:49.376Z,1.47
2019-01-09T01:19:53.535Z,1.45
2019-01-09T01:20:57.730Z,1.42
2019-01-09T01:22:01.780Z,1.44
2019-01-09T01:23:05.885Z,1.43
2019-01-09T01:24:09.987Z,1.40
2019-01-09T01:25:14.123Z,1.41
2019-01-09T01:26:18.369Z,1.43
2019-01-09T01:27:22.533Z,1.42
2019-01-09T01:28:26.622Z,1.44
2019-01-09T01:29:30.820Z,1.44
2019-01-09T01:30:35.009Z,1.42
2019-01-09T01:31:39.166Z,1.47
2019-01-09T01:32:43.378Z,1.50
2019-01-09T01:33:47.560Z,1.51
2019-01-09T01:34:51.735Z,1.52
2019-01-09T01:35:55.865Z,1.50
2019-01-09T01:37:00.048Z,1.51
2019-01-09T01:38:04.232Z,1.52
2019-01-09T01:39:08.324Z,1.52
2019-01-09T01:40:12.455Z,1.54
2019-01-09T01:41:16.706Z,1.55
2019-01-09T01:42:20.759Z,1.56
2019-01-09T01:43:24.885Z,1.56
2019-01-09T01:44:29.073Z,1.57
2019-01-09T01:45:33.117Z,1.58
2019-01-09T01:46:37.359Z,1.53
2019-01-09T01:47:41.555Z,1.54
2019-01-09T01:48:45.703Z,1.54
2019-01-09T01:49:49.899Z,1.53
2019-01-09T01:50:54.035Z,1.53
2019-01-09T01:51:58.157Z,1.56
2019-01-09T01:53:02.385Z,1.54
2019-01-09T01:54:06.494Z,1.55
2019-01-09T01:55:10.666Z,1.55
2019-01-09T01:56:14.839Z,1.55
2019-01-09T01:57:18.991Z,1.55
2019-01-09T01:58:23.155Z,1.54
2019-01-09T01:59:27.288Z,1.50
2019-01-09T02:00:31.448Z,1.51
2019-01-09T02:01:35.633Z,1.53
2019-01-09T02:02:39.687Z,1.53
2019-01-09T02:03:43.892Z,1.53
2019-01-09T02:04:47.961Z,1.55
2019-01-09T02:05:52.175Z,1.55
2019-01-09T02:06:56.312Z,1.54
2019-01-09T02:08:00.494Z,1.56
2019-01-09T02:09:04.697Z,1.55
2019-01-09T02:10:08.825Z,1.54
2019-01-09T02:11:14.282Z,1.54
2019-01-09T02:12:17.254Z,1.55
2019-01-09T02:13:21.386Z,1.55
2019-01-09T02:14:25.547Z,1.56
2019-01-09T02:15:29.702Z,1.55
2019-01-09T02:16:33.902Z,1.54
2019-01-09T02:17:38.080Z,1.52
2019-01-09T02:18:42.259Z,1.53
2019-01-09T02:19:46.325Z,1.55
2019-01-09T02:20:50.516Z,1.51
2019-01-09T02:21:54.887Z,1.52
2019-01-09T02:22:58.879Z,1.51
2019-01-09T02:24:02.981Z,1.50
2019-01-09T02:25:07.089Z,1.52
2019-01-09T02:26:11.332Z,1.51
2019-01-09T02:27:15.515Z,1.50
2019-01-09T02:28:19.705Z,1.51
2019-01-09T02:29:23.795Z,1.53
2019-01-09T02:30:27.977Z,1.48
2019-01-09T02:31:32.111Z,1.46
2019-01-09T02:32:36.260Z,1.48
2019-01-09T02:33:40.355Z,1.50
2019-01-09T02:34:44.485Z,1.49
2019-01-09T02:35:48.622Z,1.49
2019-01-09T02:36:52.846Z,1.49
2019-01-09T02:37:57.037Z,1.50
2019-01-09T02:39:01.194Z,1.49
2019-01-09T02:40:05.379Z,1.49
2019-01-09T02:41:09.556Z,1.47
2019-01-09T02:42:13.634Z,1.44
2019-01-09T02:43:17.802Z,1.41
2019-01-09T02:44:21.904Z,1.40
2019-01-09T02:45:26.101Z,1.42
2019-01-09T02:46:30.264Z,1.39
2019-01-09T02:47:34.315Z,1.37
2019-01-09T02:48:38.521Z,1.34
2019-01-09T02:49:42.700Z,1.33
2019-01-09T02:50:46.874Z,1.30
2019-01-09T02:51:50.974Z,1.32
2019-01-09T02:52:55.094Z,1.30
2019-01-09T02:53:59.253Z,1.31
2019-01-09T02:55:03.417Z,1.33
2019-01-09T02:56:07.493Z,1.32
2019-01-09T02:57:11.748Z,1.31
2019-01-09T02:58:15.911Z,1.31
2019-01-09T02:59:20.105Z,1.30
2019-01-09T03:00:24.233Z,1.29
2019-01-09T03:01:28.280Z,1.26
2019-01-09T03:02:32.517Z,1.27
2019-01-09T03:03:36.697Z,1.28
2019-01-09T03:04:40.780Z,1.28
2019-01-09T03:05:44.995Z,1.26
2019-01-09T03:06:49.029Z,1.27
2019-01-09T03:07:53.216Z,1.30
2019-01-09T03:08:57.327Z,1.32
2019-01-09T03:10:01.570Z,1.33
2019-01-09T03:11:05.638Z,1.32
2019-01-09T03:12:09.744Z,1.34
2019-01-09T03:13:13.981Z,1.33
2019-01-09T03:14:18.103Z,1.32
2019-01-09T03:15:22.304Z,1.33
2019-01-09T03:16:26.388Z,1.33
2019-01-09T03:17:30.506Z,1.30
2019-01-09T03:18:34.682Z,1.31
2019-01-09T03:19:38.782Z,1.32
2019-01-09T03:20:42.969Z,1.32
2019-01-09T03:21:46.997Z,1.30
2019-01-09T03:22:51.238Z,1.31
2019-01-09T03:23:55.394Z,1.32
2019-01-09T03:24:59.491Z,1.32
2019-01-09T03:26:03.711Z,1.30
2019-01-09T03:27:07.922Z,1.29
2019-01-09T03:28:12.095Z,1.28
2019-01-09T03:29:16.188Z,1.28
2019-01-09T03:30:20.407Z,1.28
2019-01-09T03:31:24.557Z,1.24
2019-01-09T03:32:28.757Z,1.25
2019-01-09T03:33:32.828Z,1.27
2019-01-09T03:34:37.042Z,1.28
2019-01-09T03:35:41.069Z,1.29
2019-01-09T03:36:45.287Z,1.29
2019-01-09T03:37:49.459Z,1.28
2019-01-09T03:38:53.583Z,1.28
2019-01-09T03:39:57.789Z,1.26
2019-01-09T03:41:01.906Z,1.25
2019-01-09T03:42:06.028Z,1.28
2019-01-09T03:43:10.178Z,1.30
2019-01-09T03:44:14.431Z,1.29
2019-01-09T03:45:18.486Z,1.27
2019-01-09T03:46:22.627Z,1.27
2019-01-09T03:47:26.831Z,1.25
2019-01-09T03:48:30.994Z,1.26
2019-01-09T03:49:35.196Z,1.27
2019-01-09T03:50:39.237Z,1.29
2019-01-09T03:51:43.451Z,1.28
2019-01-09T03:52:47.630Z,1.26
2019-01-09T03:53:52.644Z,1.26
2019-01-09T03:54:56.462Z,1.23
2019-01-09T03:56:00.581Z,1.24
2019-01-09T03:57:04.742Z,1.22
2019-01-09T03:58:08.818Z,1.20
2019-01-09T03:59:12.991Z,1.23
2019-01-09T04:00:17.185Z,1.23
2019-01-09T04:01:21.346Z,1.17
2019-01-09T04:02:25.495Z,1.19
2019-01-09T04:03:29.670Z,1.20
2019-01-09T04:04:33.849Z,1.19
2019-01-09T04:05:37.995Z,1.22
2019-01-09T04:06:42.440Z,1.24
2019-01-09T04:07:46.368Z,1.23
2019-01-09T04:08:50.387Z,1.26
2019-01-09T04:09:54.631Z,1.21
2019-01-09T04:10:58.687Z,1.23
2019-01-09T04:12:02.836Z,1.22
2019-01-09T04:13:06.955Z,1.23
2019-01-09T04:14:11.169Z,1.23
2019-01-09T04:15:15.300Z,1.22
2019-01-09T04:16:19.440Z,1.21
2019-01-09T04:17:23.618Z,1.25
2019-01-09T04:18:27.743Z,1.28
2019-01-09T04:19:31.853Z,1.23
2019-01-09T04:20:36.085Z,1.22
2019-01-09T04:21:40.204Z,1.21
2019-01-09T04:22:44.402Z,1.19
2019-01-09T04:23:48.519Z,1.20
2019-01-09T04:24:52.668Z,1.21
2019-01-09T04:25:56.836Z,1.22
2019-01-09T04:27:00.982Z,1.17
2019-01-09T04:28:05.043Z,1.19
2019-01-09T04:29:09.157Z,1.20
2019-01-09T04:30:13.396Z,1.21
2019-01-09T04:31:17.502Z,1.22
2019-01-09T04:32:21.746Z,1.24
2019-01-09T04:33:25.934Z,1.23
2019-01-09T04:34:30.014Z,1.22
2019-01-09T04:35:34.211Z,1.19
2019-01-09T04:36:38.361Z,1.21
2019-01-09T04:37:42.546Z,1.22
2019-01-09T04:38:47.570Z,1.23
2019-01-09T04:39:51.369Z,1.22
2019-01-09T04:40:55.423Z,1.19
2019-01-09T04:41:59.619Z,1.19
2019-01-09T04:43:03.777Z,1.20
2019-01-09T04:44:07.970Z,1.18
2019-01-09T04:45:12.134Z,1.20
2019-01-09T04:46:16.288Z,1.22
2019-01-09T04:47:20.483Z,1.22
2019-01-09T04:48:24.615Z,1.21
2019-01-09T04:49:28.780Z,1.18
2019-01-09T04:50:32.944Z,1.20
2019-01-09T04:51:37.105Z,1.21
2019-01-09T04:52:41.271Z,1.21
2019-01-09T04:53:45.352Z,1.20
2019-01-09T04:54:49.465Z,1.20
2019-01-09T04:55:53.603Z,1.20
2019-01-09T04:56:57.802Z,1.21
2019-01-09T04:58:01.973Z,1.21
2019-01-09T04:59:06.118Z,1.24
2019-01-09T05:00:10.309Z,1.24
2019-01-09T05:01:14.485Z,1.24
2019-01-09T05:02:18.528Z,1.24
2019-01-09T05:03:22.752Z,1.25
2019-01-09T05:04:26.927Z,1.24
2019-01-09T05:05:31.116Z,1.21
2019-01-09T05:06:35.296Z,1.20
2019-01-09T05:07:39.483Z,1.19
2019-01-09T05:08:43.653Z,1.18
2019-01-09T05:09:47.823Z,1.18
2019-01-09T05:10:51.973Z,1.18
2019-01-09T05:11:56.178Z,1.16
2019-01-09T05:13:00.324Z,1.16
2019-01-09T05:14:04.359Z,1.14
2019-01-09T05:15:08.488Z,1.14
2019-01-09T05:16:12.506Z,1.12
2019-01-09T05:17:16.761Z,1.14
2019-01-09T05:18:20.813Z,1.14
2019-01-09T05:19:25.052Z,1.15
2019-01-09T05:20:29.116Z,1.14
2019-01-09T05:21:33.342Z,1.14
2019-01-09T05:22:37.448Z,1.16
2019-01-09T05:23:41.599Z,1.18
2019-01-09T05:24:45.877Z,1.18
2019-01-09T05:25:49.795Z,1.19
2019-01-09T05:26:53.971Z,1.21
2019-01-09T05:27:58.093Z,1.21
2019-01-09T05:29:02.308Z,1.20
2019-01-09T05:30:06.485Z,1.20
2019-01-09T05:31:10.546Z,1.17
2019-01-09T05:32:14.748Z,1.17
2019-01-09T05:33:18.867Z,1.16
2019-01-09T05:34:23.037Z,1.14
2019-01-09T05:35:27.201Z,1.15
2019-01-09T05:36:31.287Z,1.18
2019-01-09T05:37:35.464Z,1.17
2019-01-09T05:38:39.678Z,1.15
2019-01-09T05:39:44.674Z,1.13
2019-01-09T05:40:48.513Z,1.11
2019-01-09T05:41:52.735Z,1.08
2019-01-09T05:42:56.925Z,1.11
2019-01-09T05:44:01.078Z,1.11
2019-01-09T05:45:05.257Z,1.10
2019-01-09T05:46:09.430Z,1.09
2019-01-09T05:47:13.511Z,1.10
2019-01-09T05:48:17.680Z,1.09
2019-01-09T05:49:21.892Z,1.08
2019-01-09T05:50:25.864Z,1.08
2019-01-09T05:51:30.014Z,1.08
2019-01-09T05:52:34.167Z,1.07
2019-01-09T05:53:38.398Z,1.09
2019-01-09T05:54:42.466Z,1.10
2019-01-09T05:55:46.710Z,1.12
2019-01-09T05:56:50.901Z,1.10
2019-01-09T05:57:55.065Z,1.10
2019-01-09T05:58:59.203Z,1.09
2019-01-09T06:00:03.168Z,1.08
2019-01-09T06:01:07.437Z,1.09
2019-01-09T06:02:11.631Z,1.09
2019-01-09T06:03:15.680Z,1.08
2019-01-09T06:04:19.913Z,1.08
2019-01-09T06:05:24.101Z,1.09
2019-01-09T06:06:28.068Z,1.08
2019-01-09T06:07:32.298Z,1.05
2019-01-09T06:08:36.331Z,1.05
2019-01-09T06:09:40.478Z,1.03
2019-01-09T06:10:44.534Z,1.02
2019-01-09T06:11:48.611Z,1.00
2019-01-09T06:12:52.909Z,1.02
2019-01-09T06:13:57.013Z,0.99
2019-01-09T06:15:01.217Z,0.97
2019-01-09T06:16:05.278Z,0.95
2019-01-09T06:17:09.513Z,0.94
2019-01-09T06:18:13.633Z,0.94
2019-01-09T06:19:17.778Z,0.95
2019-01-09T06:20:21.981Z,0.96
2019-01-09T06:21:25.955Z,0.92
2019-01-09T06:22:30.166Z,0.94
2019-01-09T06:23:34.318Z,0.94
2019-01-09T06:24:38.339Z,0.94
2019-01-09T06:25:42.392Z,0.94
2019-01-09T06:26:46.703Z,0.92
2019-01-09T06:27:50.841Z,0.93
2019-01-09T06:28:54.966Z,0.92
2019-01-09T06:29:59.058Z,0.94
2019-01-09T06:31:03.162Z,0.94
2019-01-09T06:32:07.391Z,0.96
2019-01-09T06:33:11.603Z,0.98
2019-01-09T06:34:15.708Z,0.98
2019-01-09T06:35:19.903Z,0.96
2019-01-09T06:36:24.045Z,0.96
2019-01-09T06:37:28.219Z,0.97
2019-01-09T06:38:32.391Z,0.98
2019-01-09T06:39:36.448Z,1.00
2019-01-09T06:40:40.648Z,0.99
2019-01-09T06:41:44.743Z,1.00
2019-01-09T06:42:48.956Z,1.00
2019-01-09T06:43:53.112Z,1.00
2019-01-09T06:44:57.274Z,1.02
2019-01-09T06:46:01.350Z,1.03
2019-01-09T06:47:05.463Z,1.05
2019-01-09T06:48:09.670Z,1.04
2019-01-09T06:49:13.849Z,1.07
2019-01-09T06:50:17.911Z,1.08
2019-01-09T06:51:22.082Z,1.07
2019-01-09T06:52:26.280Z,1.07
2019-01-09T06:53:30.480Z,1.09
2019-01-09T06:54:34.614Z,1.08
2019-01-09T06:55:38.861Z,1.09
2019-01-09T06:56:42.898Z,1.09
2019-01-09T06:57:47.046Z,1.08
2019-01-09T06:58:51.246Z,1.10
2019-01-09T06:59:55.256Z,1.11
2019-01-09T07:00:59.375Z,1.10
2019-01-09T07:02:03.611Z,1.11
2019-01-09T07:03:07.684Z,1.12
2019-01-09T07:04:11.866Z,1.11
2019-01-09T07:05:15.931Z,1.11
2019-01-09T07:06:20.148Z,1.11
2019-01-09T07:07:24.339Z,1.09
2019-01-09T07:08:28.369Z,1.08
2019-01-09T07:09:32.572Z,1.10
2019-01-09T07:10:36.786Z,1.11
2019-01-09T07:11:40.953Z,1.10
2019-01-09T07:12:44.988Z,1.10
2019-01-09T07:13:49.260Z,1.09
2019-01-09T07:14:53.285Z,1.09
2019-01-09T07:15:57.549Z,1.11
2019-01-09T07:17:01.737Z,1.12
2019-01-09T07:18:05.821Z,1.11
2019-01-09T07:19:10.007Z,1.12
2019-01-09T07:20:14.168Z,1.12
2019-01-09T07:21:18.207Z,1.12
2019-01-09T07:22:22.326Z,1.12
2019-01-09T07:23:26.459Z,1.13
2019-01-09T07:24:30.667Z,1.09
2019-01-09T07:25:34.854Z,1.07
2019-01-09T07:26:39.026Z,1.06
2019-01-09T07:27:43.087Z,1.04
2019-01-09T07:28:47.323Z,1.03
2019-01-09T07:29:51.437Z,1.03
2019-01-09T07:30:55.597Z,1.03
2019-01-09T07:31:59.768Z,1.00
2019-01-09T07:33:03.862Z,0.99
2019-01-09T07:34:08.028Z,1.01
2019-01-09T07:35:12.176Z,1.00
2019-01-09T07:36:16.377Z,1.02
2019-01-09T07:37:20.558Z,1.03
2019-01-09T07:38:24.594Z,1.03
2019-01-09T07:39:28.636Z,1.03
2019-01-09T07:40:32.806Z,1.03
2019-01-09T07:41:37.120Z,1.04
2019-01-09T07:42:41.250Z,1.04
2019-01-09T07:43:45.206Z,1.04
2019-01-09T07:44:49.469Z,1.03
2019-01-09T07:45:56.606Z,1.02
2019-01-09T07:46:59.853Z,1.02
2019-01-09T07:48:03.895Z,1.00
2019-01-09T07:49:08.107Z,0.96
2019-01-09T07:50:12.249Z,0.95
2019-01-09T07:51:16.439Z,0.96
2019-01-09T07:52:20.438Z,0.97
2019-01-09T07:53:24.685Z,0.99
2019-01-09T07:54:28.864Z,1.00
2019-01-09T07:55:32.854Z,1.01
2019-01-09T07:56:36.988Z,1.00
2019-01-09T07:57:41.129Z,1.01
2019-01-09T07:58:45.333Z,1.01
2019-01-09T07:59:49.498Z,1.01
2019-01-09T08:00:53.548Z,1.03
2019-01-09T08:01:57.662Z,1.03
2019-01-09T08:03:01.730Z,1.05
2019-01-09T08:04:05.948Z,1.06
2019-01-09T08:05:09.970Z,1.09
2019-01-09T08:06:14.186Z,1.10
2019-01-09T08:07:18.383Z,1.11
2019-01-09T08:08:22.534Z,1.12
2019-01-09T08:09:26.637Z,1.13
2019-01-09T08:10:30.841Z,1.15
2019-01-09T08:11:34.999Z,1.14
2019-01-09T08:12:39.190Z,1.14
2019-01-09T08:13:43.330Z,1.12
2019-01-09T08:14:47.475Z,1.13
2019-01-09T08:15:51.626Z,1.12
2019-01-09T08:16:55.696Z,1.14
2019-01-09T08:17:59.808Z,1.15
2019-01-09T08:19:03.901Z,1.17
2019-01-09T08:20:08.129Z,1.19
2019-01-09T08:21:12.174Z,1.20
2019-01-09T08:22:16.320Z,1.20
2019-01-09T08:23:20.464Z,1.19
2019-01-09T08:24:24.650Z,1.19
2019-01-09T08:25:28.700Z,1.20
2019-01-09T08:26:32.752Z,1.22
2019-01-09T08:27:37.045Z,1.24
2019-01-09T08:28:41.226Z,1.24
2019-01-09T08:29:45.374Z,1.24
2019-01-09T08:30:49.447Z,1.27
2019-01-09T08:31:53.682Z,1.30
2019-01-09T08:32:57.852Z,1.34
2019-01-09T08:34:01.988Z,1.32
2019-01-09T08:35:06.177Z,1.32
2019-01-09T08:36:10.339Z,1.29
2019-01-09T08:37:14.501Z,1.28
2019-01-09T08:38:18.648Z,1.24
2019-01-09T08:39:22.928Z,1.22
2019-01-09T08:40:26.878Z,1.23
2019-01-09T08:41:30.926Z,1.24
2019-01-09T08:42:35.187Z,1.22
2019-01-09T08:43:39.359Z,1.24
2019-01-09T08:44:43.419Z,1.26
2019-01-09T08:45:47.645Z,1.21
2019-01-09T08:46:51.696Z,1.22
2019-01-09T08:47:55.875Z,1.21
2019-01-09T08:49:00.069Z,1.22
2019-01-09T08:50:04.171Z,1.24
2019-01-09T08:51:08.291Z,1.23
2019-01-09T08:52:12.533Z,1.20
2019-01-09T08:53:16.640Z,1.21
2019-01-09T08:54:20.853Z,1.21
2019-01-09T08:55:25.025Z,1.22
2019-01-09T08:56:29.097Z,1.22
2019-01-09T08:57:33.168Z,1.24
2019-01-09T08:58:37.485Z,1.23
2019-01-09T08:59:41.625Z,1.25
2019-01-09T09:00:45.780Z,1.26
2019-01-09T09:01:49.889Z,1.26
2019-01-09T09:02:54.111Z,1.28
2019-01-09T09:03:58.214Z,1.29
2019-01-09T09:05:02.403Z,1.30
2019-01-09T09:06:06.611Z,1.32
2019-01-09T09:07:10.784Z,1.31
2019-01-09T09:08:14.763Z,1.32
2019-01-09T09:09:19.043Z,1.32
2019-01-09T09:10:23.083Z,1.35
2019-01-09T09:11:27.223Z,1.35
2019-01-09T09:12:31.421Z,1.35
2019-01-09T09:13:35.393Z,1.33
2019-01-09T09:14:39.547Z,1.35
2019-01-09T09:15:43.793Z,1.36
2019-01-09T09:16:47.901Z,1.39
2019-01-09T09:17:52.033Z,1.32
2019-01-09T09:18:56.267Z,1.35
2019-01-09T09:20:00.373Z,1.37
2019-01-09T09:21:04.513Z,1.40
2019-01-09T09:22:08.691Z,1.37
2019-01-09T09:23:12.897Z,1.36
2019-01-09T09:24:17.063Z,1.38
2019-01-09T09:25:21.063Z,1.38
2019-01-09T09:26:25.244Z,1.35
2019-01-09T09:27:29.506Z,1.35
2019-01-09T09:28:33.547Z,1.34
2019-01-09T09:29:37.816Z,1.37
2019-01-09T09:30:41.932Z,1.36
2019-01-09T09:31:46.135Z,1.36
2019-01-09T09:32:50.258Z,1.35
2019-01-09T09:33:54.464Z,1.35
2019-01-09T09:34:58.619Z,1.37
2019-01-09T09:36:02.802Z,1.39
2019-01-09T09:37:06.908Z,1.41
2019-01-09T09:38:11.097Z,1.42
2019-01-09T09:39:15.167Z,1.38
2019-01-09T09:40:19.280Z,1.39
2019-01-09T09:41:23.494Z,1.41
2019-01-09T09:42:27.497Z,1.41
2019-01-09T09:43:31.706Z,1.39
2019-01-09T09:44:35.834Z,1.38
2019-01-09T09:45:40.091Z,1.40
2019-01-09T09:46:44.266Z,1.42
2019-01-09T09:47:48.459Z,1.44
2019-01-09T09:48:52.604Z,1.45
2019-01-09T09:49:56.796Z,1.45
2019-01-09T09:51:00.898Z,1.43
2019-01-09T09:52:05.083Z,1.43
2019-01-09T09:53:09.239Z,1.44
2019-01-09T09:54:13.349Z,1.41
2019-01-09T09:55:17.574Z,1.42
2019-01-09T09:56:21.745Z,1.41
2019-01-09T09:57:25.928Z,1.42
2019-01-09T09:58:30.108Z,1.37
2019-01-09T09:59:34.199Z,1.37
2019-01-09T10:00:38.406Z,1.37
2019-01-09T10:01:42.594Z,1.37
2019-01-09T10:02:46.670Z,1.38
2019-01-09T10:03:50.753Z,1.38
2019-01-09T10:04:54.992Z,1.36
2019-01-09T10:05:59.135Z,1.36
2019-01-09T10:07:03.174Z,1.34
2019-01-09T10:08:07.323Z,1.36
2019-01-09T10:09:11.507Z,1.38
2019-01-09T10:10:15.679Z,1.40
2019-01-09T10:11:19.865Z,1.38
2019-01-09T10:12:23.982Z,1.41
2019-01-09T10:13:28.080Z,1.40
2019-01-09T10:14:32.257Z,1.41
2019-01-09T10:15:36.367Z,1.43
2019-01-09T10:16:40.600Z,1.42
2019-01-09T10:17:44.772Z,1.41
2019-01-09T10:18:48.026Z,1.40
2019-01-09T10:19:52.233Z,1.40
2019-01-09T10:20:56.444Z,1.40
2019-01-09T10:22:00.440Z,1.42
2019-01-09T10:23:04.698Z,1.40
2019-01-09T10:24:08.765Z,1.40
2019-01-09T10:25:12.985Z,1.40
2019-01-09T10:26:17.153Z,1.41
2019-01-09T10:27:21.311Z,1.40
2019-01-09T10:28:25.486Z,1.43
2019-01-09T10:29:29.655Z,1.42
2019-01-09T10:30:33.803Z,1.41
2019-01-09T10:31:38.030Z,1.40
2019-01-09T10:32:42.137Z,1.39
2019-01-09T10:33:46.347Z,1.42
2019-01-09T10:34:50.517Z,1.44
2019-01-09T10:35:54.699Z,1.45
2019-01-09T10:36:58.887Z,1.43
2019-01-09T10:38:02.927Z,1.44
2019-01-09T10:39:07.159Z,1.44
2019-01-09T10:40:11.364Z,1.44
2019-01-09T10:41:15.422Z,1.45
2019-01-09T10:42:19.672Z,1.41
2019-01-09T10:43:23.854Z,1.43
2019-01-09T10:44:27.994Z,1.42
2019-01-09T10:45:32.066Z,1.43
2019-01-09T10:46:36.218Z,1.42
2019-01-09T10:47:40.454Z,1.43
2019-01-09T10:48:44.591Z,1.43
2019-01-09T10:49:48.692Z,1.41
2019-01-09T10:50:52.793Z,1.40
2019-01-09T10:51:57.057Z,1.41
2019-01-09T10:53:01.002Z,1.41
2019-01-09T10:54:05.296Z,1.40
2019-01-09T10:55:09.455Z,1.40
2019-01-09T10:56:13.635Z,1.39
2019-01-09T10:57:17.830Z,1.40
2019-01-09T10:58:21.980Z,1.41
2019-01-09T10:59:26.153Z,1.41
2019-01-09T11:00:33.352Z,1.42
2019-01-09T11:01:36.504Z,1.42
2019-01-09T11:02:40.729Z,1.43
2019-01-09T11:03:44.902Z,1.41
2019-01-09T11:04:48.978Z,1.39
2019-01-09T11:05:53.162Z,1.41
2019-01-09T11:06:57.222Z,1.41
2019-01-09T11:08:01.399Z,1.41
2019-01-09T11:09:05.612Z,1.43
2019-01-09T11:10:09.692Z,1.40
2019-01-09T11:11:13.796Z,1.41
2019-01-09T11:12:17.906Z,1.42
2019-01-09T11:13:22.038Z,1.37
2019-01-09T11:14:26.185Z,1.35
2019-01-09T11:15:30.372Z,1.35
2019-01-09T11:16:34.451Z,1.36
2019-01-09T11:17:38.659Z,1.37
2019-01-09T11:18:42.840Z,1.36
2019-01-09T11:19:47.004Z,1.35
2019-01-09T11:20:51.079Z,1.30
2019-01-09T11:21:55.225Z,1.32
2019-01-09T11:22:59.357Z,1.37
2019-01-09T11:24:03.515Z,1.39
2019-01-09T11:25:07.667Z,1.41
2019-01-09T11:26:11.898Z,1.41
2019-01-09T11:27:16.088Z,1.39
2019-01-09T11:28:20.277Z,1.35
2019-01-09T11:29:24.456Z,1.34
2019-01-09T11:30:28.598Z,1.34
2019-01-09T11:31:32.688Z,1.34
2019-01-09T11:32:36.817Z,1.37
2019-01-09T11:33:40.983Z,1.39
2019-01-09T11:34:45.201Z,1.40
2019-01-09T11:35:49.379Z,1.38
2019-01-09T11:36:53.460Z,1.41
2019-01-09T11:37:57.670Z,1.39
2019-01-09T11:39:01.773Z,1.39
2019-01-09T11:40:05.957Z,1.41
2019-01-09T11:41:10.144Z,1.37
2019-01-09T11:42:14.304Z,1.39
2019-01-09T11:43:18.516Z,1.43
2019-01-09T11:44:22.616Z,1.43
2019-01-09T11:45:26.743Z,1.42
2019-01-09T11:46:30.943Z,1.42
2019-01-09T11:47:35.116Z,1.42
2019-01-09T11:48:39.318Z,1.43
2019-01-09T11:49:43.510Z,1.40
2019-01-09T11:50:47.539Z,1.38
2019-01-09T11:51:51.733Z,1.36
2019-01-09T11:52:55.951Z,1.37
2019-01-09T11:54:00.110Z,1.33
2019-01-09T11:55:04.300Z,1.34
2019-01-09T11:56:08.387Z,1.35
2019-01-09T11:57:12.555Z,1.36
2019-01-09T11:58:16.716Z,1.37
2019-01-09T11:59:20.934Z,1.35
2019-01-09T12:00:24.942Z,1.36
2019-01-09T12:01:29.211Z,1.33
2019-01-09T12:02:33.293Z,1.32
2019-01-09T12:03:37.529Z,1.29
2019-01-09T12:04:41.606Z,1.29
2019-01-09T12:05:45.841Z,1.27
2019-01-09T12:06:50.024Z,1.26
2019-01-09T12:07:54.198Z,1.25
2019-01-09T12:09:04.526Z,1.22
2019-01-09T12:10:02.523Z,1.25
2019-01-09T12:11:06.659Z,1.25
2019-01-09T12:12:10.862Z,1.27
2019-01-09T12:13:15.035Z,1.26
2019-01-09T12:14:19.077Z,1.26
2019-01-09T12:15:23.305Z,1.25
2019-01-09T12:16:27.302Z,1.25
2019-01-09T12:17:31.436Z,1.26
2019-01-09T12:18:35.626Z,1.26
2019-01-09T12:19:39.754Z,1.26
2019-01-09T12:20:43.872Z,1.29
2019-01-09T12:21:48.088Z,1.29
2019-01-09T12:22:52.131Z,1.30
2019-01-09T12:23:56.291Z,1.31
2019-01-09T12:25:03.463Z,1.33
2019-01-09T12:26:06.674Z,1.36
2019-01-09T12:27:10.803Z,1.35
2019-01-09T12:28:14.979Z,1.31
2019-01-09T12:29:19.094Z,1.35
2019-01-09T12:30:23.293Z,1.36
2019-01-09T12:31:27.444Z,1.40
2019-01-09T12:32:31.502Z,1.41
2019-01-09T12:33:35.759Z,1.40
2019-01-09T12:34:39.839Z,1.37
2019-01-09T12:35:44.053Z,1.36
2019-01-09T12:36:48.206Z,1.33
2019-01-09T12:37:52.300Z,1.35
2019-01-09T12:38:56.533Z,1.33
2019-01-09T12:40:00.716Z,1.33
2019-01-09T12:41:04.859Z,1.33
2019-01-09T12:42:09.018Z,1.31
2019-01-09T12:43:13.076Z,1.31
2019-01-09T12:44:17.234Z,1.32
2019-01-09T12:45:21.483Z,1.33
2019-01-09T12:46:25.546Z,1.30
2019-01-09T12:47:29.696Z,1.31
2019-01-09T12:48:33.844Z,1.32
2019-01-09T12:49:38.036Z,1.33
2019-01-09T12:50:42.228Z,1.27
2019-01-09T12:51:46.389Z,1.23
2019-01-09T12:52:52.565Z,1.21
2019-01-09T12:53:54.566Z,1.19
2019-01-09T12:54:58.704Z,1.22
2019-01-09T12:56:02.923Z,1.27
2019-01-09T12:57:07.075Z,1.29
2019-01-09T12:58:11.246Z,1.32
2019-01-09T12:59:21.632Z,1.31
2019-01-09T13:00:19.565Z,1.35
2019-01-09T13:01:23.714Z,1.38
2019-01-09T13:02:27.741Z,1.38
2019-01-09T13:03:31.974Z,1.40
2019-01-09T13:04:36.134Z,1.41
2019-01-09T13:05:40.310Z,1.36
2019-01-09T13:06:44.445Z,1.34
2019-01-09T13:07:48.629Z,1.34
2019-01-09T13:08:52.819Z,1.36
2019-01-09T13:09:56.915Z,1.38
2019-01-09T13:11:01.171Z,1.40
2019-01-09T13:12:05.344Z,1.43
2019-01-09T13:13:09.529Z,1.38
2019-01-09T13:14:13.619Z,1.35
2019-01-09T13:15:17.865Z,1.35
2019-01-09T13:16:21.977Z,1.35
2019-01-09T13:17:26.135Z,1.34
2019-01-09T13:18:30.377Z,1.30
2019-01-09T13:19:34.538Z,1.31
2019-01-09T13:20:38.609Z,1.31
2019-01-09T13:21:42.754Z,1.31
2019-01-09T13:22:46.971Z,1.27
2019-01-09T13:23:51.165Z,1.27
2019-01-09T13:24:55.307Z,1.25
2019-01-09T13:25:59.510Z,1.24
2019-01-09T13:27:03.661Z,1.26
2019-01-09T13:28:07.863Z,1.27
2019-01-09T13:29:12.048Z,1.25
2019-01-09T13:30:16.098Z,1.22
2019-01-09T13:31:20.286Z,1.20
2019-01-09T13:32:24.377Z,1.12
2019-01-09T13:33:28.501Z,1.11
2019-01-09T13:34:32.729Z,1.10
2019-01-09T13:35:36.904Z,1.09
2019-01-09T13:36:41.110Z,1.06
2019-01-09T13:37:45.230Z,1.05
2019-01-09T13:38:49.344Z,1.07
2019-01-09T13:39:53.401Z,1.06
2019-01-09T13:40:57.548Z,1.06
2019-01-09T13:42:01.787Z,1.08
2019-01-09T13:43:05.845Z,1.08
2019-01-09T13:44:10.074Z,1.08
2019-01-09T13:45:14.237Z,1.07
2019-01-09T13:46:18.406Z,1.03
2019-01-09T13:47:22.598Z,1.01
2019-01-09T13:48:26.662Z,1.03
2019-01-09T13:49:30.816Z,1.04
2019-01-09T13:50:35.043Z,1.06
2019-01-09T13:51:39.111Z,1.05
2019-01-09T13:52:43.174Z,1.08
2019-01-09T13:53:47.297Z,1.06
2019-01-09T13:54:51.512Z,1.08
2019-01-09T13:55:55.710Z,1.09
2019-01-09T13:56:59.808Z,1.10
2019-01-09T13:58:03.988Z,1.11
2019-01-09T13:59:07.976Z,1.08
2019-01-09T14:00:12.182Z,1.07
2019-01-09T14:01:16.202Z,1.05
2019-01-09T14:02:20.430Z,1.04
2019-01-09T14:03:24.553Z,1.01
2019-01-09T14:04:28.592Z,1.01
2019-01-09T14:05:32.887Z,1.04
2019-01-09T14:06:37.053Z,1.07
2019-01-09T14:07:41.080Z,1.07
2019-01-09T14:08:45.328Z,1.07
2019-01-09T14:09:49.386Z,1.10
2019-01-09T14:10:53.540Z,1.10
2019-01-09T14:11:57.770Z,1.08
2019-01-09T14:13:01.965Z,1.09
2019-01-09T14:14:06.136Z,1.12